createdAt,value
2018-10-02T00:00:02.499Z,0
2018-10-02T00:05:03.273Z,0
2018-10-02T00:10:02.912Z,0
2018-10-02T00:15:02.502Z,0
2018-10-02T00:20:03.211Z,0
2018-10-02T00:25:02.821Z,0
2018-10-02T00:30:02.373Z,0
2018-10-02T00:35:02.946Z,0
2018-10-02T00:40:02.515Z,0
2018-10-02T00:45:03.104Z,0
2018-10-02T00:50:02.693Z,0
2018-10-02T00:55:03.278Z,0
2018-10-02T01:00:02.918Z,0
2018-10-02T01:05:02.430Z,0
2018-10-02T01:10:03.111Z,0
2018-10-02T01:15:02.703Z,0
2018-10-02T01:20:03.353Z,0
2018-10-02T01:25:02.920Z,0
2018-10-02T01:30:02.528Z,0
2018-10-02T01:35:03.347Z,0
2018-10-02T01:40:03.025Z,0
2018-10-02T01:45:02.592Z,0
2018-10-02T01:50:03.188Z,0
2018-10-02T01:55:02.706Z,0
2018-10-02T02:00:03.294Z,0
2018-10-02T02:05:02.747Z,0
2018-10-02T02:10:03.364Z,0
2018-10-02T02:15:02.909Z,0
2018-10-02T02:20:02.544Z,0
2018-10-02T02:25:03.192Z,0
2018-10-02T02:30:02.719Z,0
2018-10-02T02:35:03.424Z,0
2018-10-02T02:40:03.140Z,0
2018-10-02T02:45:02.729Z,0
2018-10-02T02:50:02.408Z,0
2018-10-02T02:55:03.226Z,0
2018-10-02T03:00:03.278Z,0
2018-10-02T03:05:02.760Z,0
2018-10-02T03:10:02.401Z,0
2018-10-02T03:15:02.990Z,0
2018-10-02T03:20:02.545Z,0
2018-10-02T03:25:03.109Z,0
2018-10-02T03:30:02.691Z,0
2018-10-02T03:35:03.241Z,0
2018-10-02T03:40:02.970Z,0
2018-10-02T03:45:02.508Z,0
2018-10-02T03:50:03.018Z,0
2018-10-02T03:55:02.584Z,0
2018-10-02T04:00:03.418Z,0
2018-10-02T04:05:03.018Z,0
2018-10-02T04:10:02.712Z,0
2018-10-02T04:15:03.214Z,0
2018-10-02T04:20:02.669Z,0
2018-10-02T04:25:03.222Z,0
2018-10-02T04:30:02.727Z,0
2018-10-02T04:35:02.369Z,0
2018-10-02T04:40:02.998Z,0
2018-10-02T04:45:02.589Z,0
2018-10-02T04:50:03.117Z,0
2018-10-02T04:55:02.799Z,0
2018-10-02T05:00:02.709Z,0
2018-10-02T05:05:03.321Z,0
2018-10-02T05:10:03.020Z,0
2018-10-02T05:15:02.655Z,1
2018-10-02T05:25:02.816Z,7
2018-10-02T05:30:02.375Z,14
2018-10-02T05:35:03.167Z,27
2018-10-02T05:40:02.584Z,38
2018-10-02T05:45:03.249Z,47
2018-10-02T05:50:02.665Z,64
2018-10-02T05:55:03.269Z,118
2018-10-02T06:00:02.837Z,132
2018-10-02T06:05:02.412Z,104
2018-10-02T06:10:03.447Z,260
2018-10-02T06:15:02.773Z,259
2018-10-02T06:20:02.375Z,128
2018-10-02T06:25:02.911Z,204
2018-10-02T06:30:02.530Z,329
2018-10-02T06:35:03.117Z,316
2018-10-02T06:40:02.730Z,351
2018-10-02T06:45:02.593Z,466
2018-10-02T06:50:02.726Z,649
2018-10-02T06:55:03.293Z,707
2018-10-02T07:00:02.971Z,733
2018-10-02T07:05:02.568Z,865
2018-10-02T07:10:03.208Z,891
2018-10-02T07:15:02.986Z,569
2018-10-02T07:20:03.050Z,710
2018-10-02T07:25:02.699Z,680
2018-10-02T07:30:02.755Z,1000
2018-10-02T07:35:03.336Z,730
2018-10-02T07:40:03.003Z,807
2018-10-02T07:45:02.936Z,1000
2018-10-02T07:50:03.152Z,963
2018-10-02T07:55:02.734Z,1000
2018-10-02T08:00:03.519Z,1000
2018-10-02T08:05:02.929Z,1000
2018-10-02T08:10:02.522Z,1000
2018-10-02T08:15:03.399Z,1000
2018-10-02T08:20:02.791Z,1000
2018-10-02T08:25:03.032Z,1000
2018-10-02T08:30:02.981Z,2000
2018-10-02T08:35:03.279Z,2000
2018-10-02T08:40:03.054Z,2000
2018-10-02T08:45:02.901Z,2000
2018-10-02T08:50:02.790Z,5000
2018-10-02T08:55:02.439Z,3000
2018-10-02T09:00:03.058Z,3000
2018-10-02T09:05:02.552Z,3000
2018-10-02T09:10:03.251Z,3000
2018-10-02T09:15:02.897Z,2000
2018-10-02T09:20:02.420Z,2000
2018-10-02T09:25:03.161Z,2000
2018-10-02T09:30:02.451Z,2000
2018-10-02T09:35:03.007Z,2000
2018-10-02T09:40:02.854Z,2000
2018-10-02T09:45:03.004Z,2000
2018-10-02T09:50:02.544Z,1000
2018-10-02T09:55:03.450Z,2000
2018-10-02T10:00:02.437Z,1000
2018-10-02T10:05:03.094Z,1000
2018-10-02T10:10:02.718Z,1000
2018-10-02T10:15:03.256Z,1000
2018-10-02T10:20:02.852Z,2000
2018-10-02T10:25:03.413Z,3000
2018-10-02T10:30:02.961Z,2000
2018-10-02T10:35:02.779Z,2000
2018-10-02T10:40:02.913Z,3000
2018-10-02T10:45:02.457Z,3000
2018-10-02T10:50:02.895Z,2000
2018-10-02T10:55:02.456Z,3000
2018-10-02T11:00:03.011Z,4000
2018-10-02T11:05:02.852Z,3000
2018-10-02T11:10:03.066Z,4000
2018-10-02T11:15:02.747Z,4000
2018-10-02T11:20:02.524Z,4000
2018-10-02T11:25:03.160Z,4000
2018-10-02T11:30:02.924Z,2000
2018-10-02T11:35:02.624Z,2000
2018-10-02T11:40:03.258Z,2000
2018-10-02T11:45:03.179Z,4000
2018-10-02T11:50:03.640Z,4000
2018-10-02T11:55:02.530Z,3000
2018-10-02T12:00:03.112Z,2000
2018-10-02T12:05:02.682Z,4000
2018-10-02T12:10:03.317Z,3000
2018-10-02T12:15:02.966Z,3000
2018-10-02T12:20:03.464Z,3000
2018-10-02T12:25:02.795Z,4000
2018-10-02T12:30:03.333Z,3000
2018-10-02T12:35:02.899Z,4000
2018-10-02T12:40:02.549Z,4000
2018-10-02T12:45:03.320Z,36000
2018-10-02T12:50:03.056Z,7000
2018-10-02T12:55:02.575Z,9000
2018-10-02T13:00:03.165Z,5000
2018-10-02T13:05:02.754Z,4000
2018-10-02T13:10:02.551Z,5000
2018-10-02T13:15:02.506Z,17000
2018-10-02T13:20:03.314Z,36000
2018-10-02T13:25:02.457Z,32000
2018-10-02T13:30:03.012Z,33000
2018-10-02T13:35:02.590Z,11000
2018-10-02T13:40:03.193Z,7000
2018-10-02T13:45:02.738Z,5000
2018-10-02T13:50:03.335Z,8000
2018-10-02T13:55:02.863Z,11000
2018-10-02T14:00:02.458Z,13000
2018-10-02T14:05:03.035Z,13000
2018-10-02T14:10:02.711Z,12000
2018-10-02T14:15:02.587Z,20000
2018-10-02T14:20:02.972Z,15000
2018-10-02T14:25:02.608Z,13000
2018-10-02T14:30:03.247Z,16000
2018-10-02T14:35:02.821Z,9000
2018-10-02T14:40:02.474Z,10000
2018-10-02T14:45:03.153Z,7000
2018-10-02T14:50:02.781Z,8000
2018-10-02T14:55:03.347Z,5000
2018-10-02T15:00:02.944Z,7000
2018-10-02T15:05:02.609Z,4000
2018-10-02T15:10:03.276Z,3000
2018-10-02T15:15:02.859Z,7000
2018-10-02T15:20:02.531Z,20000
2018-10-02T15:25:03.193Z,17000
2018-10-02T15:30:02.838Z,19000
2018-10-02T15:35:02.490Z,17000
2018-10-02T15:40:03.210Z,3000
2018-10-02T15:45:02.903Z,2000
2018-10-02T15:50:02.553Z,19000
2018-10-02T15:55:03.127Z,14000
2018-10-02T16:00:02.709Z,12000
2018-10-02T16:05:03.401Z,3000
2018-10-02T16:10:03.065Z,3000
2018-10-02T16:15:02.752Z,2000
2018-10-02T16:20:02.457Z,1000
2018-10-02T16:25:03.126Z,1000
2018-10-02T16:30:02.728Z,1000
2018-10-02T16:35:02.401Z,1000
2018-10-02T16:40:03.023Z,864
2018-10-02T16:45:02.625Z,787
2018-10-02T16:50:03.324Z,525
2018-10-02T16:55:02.939Z,394
2018-10-02T17:00:02.524Z,301
2018-10-02T17:05:03.159Z,177
2018-10-02T17:10:02.781Z,77
2018-10-02T17:15:02.415Z,64
2018-10-02T17:20:02.969Z,41
2018-10-02T17:25:02.698Z,25
2018-10-02T17:30:03.255Z,13
2018-10-02T17:35:02.797Z,6
2018-10-02T17:40:02.533Z,2
2018-10-02T17:45:03.259Z,1
2018-10-02T17:50:02.841Z,0
2018-10-02T17:55:02.680Z,0
2018-10-02T18:00:02.909Z,0
2018-10-02T18:05:02.520Z,0
2018-10-02T18:10:03.178Z,0
2018-10-02T18:15:02.755Z,0
2018-10-02T18:20:02.527Z,0
2018-10-02T18:25:03.211Z,0
2018-10-02T18:30:02.805Z,0
2018-10-02T18:35:02.401Z,0
2018-10-02T18:40:03.096Z,0
2018-10-02T18:45:02.701Z,0
2018-10-02T18:50:02.573Z,0
2018-10-02T18:55:03.427Z,0
2018-10-02T19:00:02.996Z,0
2018-10-02T19:05:02.693Z,0
2018-10-02T19:10:03.689Z,0
2018-10-02T19:15:02.700Z,0
2018-10-02T19:20:03.373Z,0
2018-10-02T19:25:03.105Z,0
2018-10-02T19:30:03.215Z,0
2018-10-02T19:35:02.794Z,0
2018-10-02T19:40:02.578Z,0
2018-10-02T19:45:03.270Z,0
2018-10-02T19:50:03.041Z,0
2018-10-02T19:55:02.713Z,0
2018-10-02T20:00:03.468Z,0
2018-10-02T20:05:03.108Z,0
2018-10-02T20:10:02.788Z,0
2018-10-02T20:15:03.615Z,0
2018-10-02T20:20:03.283Z,0
2018-10-02T20:25:02.891Z,0
2018-10-02T20:30:02.429Z,0
2018-10-02T20:35:03.117Z,0
2018-10-02T20:40:02.895Z,0
2018-10-02T20:45:02.484Z,0
2018-10-02T20:50:03.189Z,0
2018-10-02T20:55:02.835Z,0
2018-10-02T21:00:02.446Z,0
2018-10-02T21:05:03.315Z,0
2018-10-02T21:10:03.034Z,0
2018-10-02T21:15:02.704Z,0
2018-10-02T21:20:02.796Z,0
2018-10-02T21:25:02.960Z,0
2018-10-02T21:30:02.484Z,0
2018-10-02T21:35:03.098Z,0
2018-10-02T21:40:02.918Z,0
2018-10-02T21:45:03.190Z,0
2018-10-02T21:50:02.727Z,0
2018-10-02T21:55:03.334Z,0
2018-10-02T22:00:02.922Z,0
2018-10-02T22:05:03.209Z,0
2018-10-02T22:10:02.905Z,0
2018-10-02T22:15:02.488Z,0
2018-10-02T22:20:03.145Z,0
2018-10-02T22:25:02.793Z,0
2018-10-02T22:30:02.397Z,0
2018-10-02T22:35:03.171Z,0
2018-10-02T22:40:02.983Z,0
2018-10-02T22:45:03.021Z,0
2018-10-02T22:50:02.559Z,0
2018-10-02T22:55:03.415Z,0
2018-10-02T23:00:03.091Z,0
2018-10-02T23:05:02.705Z,0
2018-10-02T23:10:02.439Z,0
2018-10-02T23:15:03.517Z,0
2018-10-02T23:20:03.052Z,0
2018-10-02T23:25:02.673Z,0
2018-10-02T23:30:03.337Z,0
2018-10-02T23:35:02.929Z,0
2018-10-02T23:40:02.634Z,0
2018-10-02T23:45:03.200Z,0
2018-10-02T23:50:02.782Z,0
2018-10-02T23:55:02.360Z,0
